sensor_id;sensor_type;location;lat;lon;timestamp;P1;durP1;ratioP1;P2;durP2;ratioP2
44985;SDS011;30721;49.380;7.736;2023-11-18T00:01:05;14.98;;;9.15;;
44985;SDS011;30721;49.380;7.736;2023-11-18T00:03:30;17.80;;;10.48;;
44985;SDS011;30721;49.380;7.736;2023-11-18T00:05:56;16.27;;;10.38;;
44985;SDS011;30721;49.380;7.736;2023-11-18T00:08:21;17.60;;;11.40;;
44985;SDS011;30721;49.380;7.736;2023-11-18T00:10:46;17.00;;;10.48;;
44985;SDS011;30721;49.380;7.736;2023-11-18T00:13:12;18.17;;;11.25;;
44985;SDS011;30721;49.380;7.736;2023-11-18T00:15:38;17.77;;;10.35;;
44985;SDS011;30721;49.380;7.736;2023-11-18T00:18:03;18.80;;;10.55;;
44985;SDS011;30721;49.380;7.736;2023-11-18T00:20:29;19.08;;;10.85;;
44985;SDS011;30721;49.380;7.736;2023-11-18T00:22:56;17.08;;;10.85;;
44985;SDS011;30721;49.380;7.736;2023-11-18T00:25:22;16.63;;;10.43;;
44985;SDS011;30721;49.380;7.736;2023-11-18T00:27:47;16.60;;;9.77;;
44985;SDS011;30721;49.380;7.736;2023-11-18T00:30:12;16.35;;;9.77;;
44985;SDS011;30721;49.380;7.736;2023-11-18T00:32:38;16.25;;;10.65;;
44985;SDS011;30721;49.380;7.736;2023-11-18T00:35:04;17.50;;;10.82;;
44985;SDS011;30721;49.380;7.736;2023-11-18T00:37:30;16.85;;;10.43;;
44985;SDS011;30721;49.380;7.736;2023-11-18T00:39:56;14.95;;;9.55;;
44985;SDS011;30721;49.380;7.736;2023-11-18T00:42:22;16.77;;;11.25;;
44985;SDS011;30721;49.380;7.736;2023-11-18T00:44:47;16.88;;;10.02;;
44985;SDS011;30721;49.380;7.736;2023-11-18T00:47:12;18.27;;;9.25;;
44985;SDS011;30721;49.380;7.736;2023-11-18T00:49:38;15.20;;;9.80;;
44985;SDS011;30721;49.380;7.736;2023-11-18T00:52:03;15.55;;;10.07;;
44985;SDS011;30721;49.380;7.736;2023-11-18T00:54:29;15.93;;;9.95;;
44985;SDS011;30721;49.380;7.736;2023-11-18T00:56:55;17.58;;;10.18;;
44985;SDS011;30721;49.380;7.736;2023-11-18T00:59:20;15.00;;;9.90;;
44985;SDS011;30721;49.380;7.736;2023-11-18T01:01:46;16.08;;;10.18;;
44985;SDS011;30721;49.380;7.736;2023-11-18T01:04:11;16.27;;;9.80;;
44985;SDS011;30721;49.380;7.736;2023-11-18T01:06:36;13.18;;;8.98;;
44985;SDS011;30721;49.380;7.736;2023-11-18T01:09:02;16.88;;;9.68;;
44985;SDS011;30721;49.380;7.736;2023-11-18T01:11:28;15.30;;;9.63;;
44985;SDS011;30721;49.380;7.736;2023-11-18T01:13:54;15.77;;;10.30;;
44985;SDS011;30721;49.380;7.736;2023-11-18T01:16:22;17.15;;;9.65;;
44985;SDS011;30721;49.380;7.736;2023-11-18T01:18:49;14.75;;;9.00;;
44985;SDS011;30721;49.380;7.736;2023-11-18T01:21:14;16.23;;;10.52;;
44985;SDS011;30721;49.380;7.736;2023-11-18T01:23:42;16.67;;;9.65;;
44985;SDS011;30721;49.380;7.736;2023-11-18T01:26:07;16.13;;;9.98;;
44985;SDS011;30721;49.380;7.736;2023-11-18T01:28:36;14.38;;;9.52;;
44985;SDS011;30721;49.380;7.736;2023-11-18T01:31:03;14.90;;;9.15;;
44985;SDS011;30721;49.380;7.736;2023-11-18T01:33:29;15.65;;;10.02;;
44985;SDS011;30721;49.380;7.736;2023-11-18T01:35:55;21.95;;;10.82;;
44985;SDS011;30721;49.380;7.736;2023-11-18T01:38:20;16.42;;;9.52;;
44985;SDS011;30721;49.380;7.736;2023-11-18T01:40:46;14.25;;;8.75;;
44985;SDS011;30721;49.380;7.736;2023-11-18T01:43:14;15.57;;;9.55;;
44985;SDS011;30721;49.380;7.736;2023-11-18T01:45:40;14.85;;;9.43;;
44985;SDS011;30721;49.380;7.736;2023-11-18T01:48:06;14.60;;;8.75;;
44985;SDS011;30721;49.380;7.736;2023-11-18T01:50:32;15.23;;;9.07;;
44985;SDS011;30721;49.380;7.736;2023-11-18T01:52:57;14.50;;;8.75;;
44985;SDS011;30721;49.380;7.736;2023-11-18T01:55:22;13.35;;;8.10;;
44985;SDS011;30721;49.380;7.736;2023-11-18T01:57:48;14.77;;;8.65;;
44985;SDS011;30721;49.380;7.736;2023-11-18T02:00:14;13.05;;;8.32;;
44985;SDS011;30721;49.380;7.736;2023-11-18T02:02:42;13.55;;;8.23;;
44985;SDS011;30721;49.380;7.736;2023-11-18T02:05:08;12.85;;;7.68;;
44985;SDS011;30721;49.380;7.736;2023-11-18T02:07:37;14.63;;;8.98;;
44985;SDS011;30721;49.380;7.736;2023-11-18T02:10:03;13.32;;;7.85;;
44985;SDS011;30721;49.380;7.736;2023-11-18T02:12:38;16.90;;;7.53;;
44985;SDS011;30721;49.380;7.736;2023-11-18T02:15:06;11.75;;;6.97;;
44985;SDS011;30721;49.380;7.736;2023-11-18T02:17:38;12.05;;;6.53;;
44985;SDS011;30721;49.380;7.736;2023-11-18T02:20:07;11.60;;;7.15;;
44985;SDS011;30721;49.380;7.736;2023-11-18T02:22:42;12.75;;;6.65;;
44985;SDS011;30721;49.380;7.736;2023-11-18T02:25:09;9.55;;;6.35;;
44985;SDS011;30721;49.380;7.736;2023-11-18T02:27:36;10.15;;;6.72;;
44985;SDS011;30721;49.380;7.736;2023-11-18T02:30:02;11.40;;;6.80;;
44985;SDS011;30721;49.380;7.736;2023-11-18T02:37:49;10.15;;;6.72;;
44985;SDS011;30721;49.380;7.736;2023-11-18T02:40:19;10.93;;;6.90;;
44985;SDS011;30721;49.380;7.736;2023-11-18T02:42:48;11.70;;;6.47;;
44985;SDS011;30721;49.380;7.736;2023-11-18T02:45:15;10.55;;;6.57;;
44985;SDS011;30721;49.380;7.736;2023-11-18T02:47:44;12.68;;;7.40;;
44985;SDS011;30721;49.380;7.736;2023-11-18T02:50:10;11.52;;;7.07;;
44985;SDS011;30721;49.380;7.736;2023-11-18T02:52:39;12.57;;;7.43;;
44985;SDS011;30721;49.380;7.736;2023-11-18T02:55:05;9.63;;;6.65;;
44985;SDS011;30721;49.380;7.736;2023-11-18T02:57:32;11.25;;;7.10;;
44985;SDS011;30721;49.380;7.736;2023-11-18T02:59:58;10.10;;;6.25;;
44985;SDS011;30721;49.380;7.736;2023-11-18T03:02:25;11.90;;;7.30;;
44985;SDS011;30721;49.380;7.736;2023-11-18T03:04:55;10.60;;;7.43;;
44985;SDS011;30721;49.380;7.736;2023-11-18T03:07:20;13.90;;;7.10;;
44985;SDS011;30721;49.380;7.736;2023-11-18T03:09:45;10.55;;;6.88;;
44985;SDS011;30721;49.380;7.736;2023-11-18T03:12:12;10.45;;;6.38;;
44985;SDS011;30721;49.380;7.736;2023-11-18T03:14:37;9.95;;;6.40;;
44985;SDS011;30721;49.380;7.736;2023-11-18T03:17:03;10.45;;;7.07;;
44985;SDS011;30721;49.380;7.736;2023-11-18T03:19:32;11.90;;;6.57;;
44985;SDS011;30721;49.380;7.736;2023-11-18T03:22:00;13.15;;;6.47;;
44985;SDS011;30721;49.380;7.736;2023-11-18T03:24:28;10.00;;;6.07;;
44985;SDS011;30721;49.380;7.736;2023-11-18T03:26:54;9.90;;;6.03;;
44985;SDS011;30721;49.380;7.736;2023-11-18T03:29:20;9.85;;;6.35;;
44985;SDS011;30721;49.380;7.736;2023-11-18T03:31:45;10.13;;;6.03;;
44985;SDS011;30721;49.380;7.736;2023-11-18T03:34:13;9.45;;;5.93;;
44985;SDS011;30721;49.380;7.736;2023-11-18T03:36:44;9.20;;;6.20;;
44985;SDS011;30721;49.380;7.736;2023-11-18T03:39:10;8.45;;;5.68;;
44985;SDS011;30721;49.380;7.736;2023-11-18T03:41:36;10.40;;;6.28;;
44985;SDS011;30721;49.380;7.736;2023-11-18T03:44:03;10.07;;;5.82;;
44985;SDS011;30721;49.380;7.736;2023-11-18T03:46:29;7.90;;;5.53;;
44985;SDS011;30721;49.380;7.736;2023-11-18T03:48:56;11.05;;;5.80;;
44985;SDS011;30721;49.380;7.736;2023-11-18T03:51:21;9.30;;;6.18;;
44985;SDS011;30721;49.380;7.736;2023-11-18T03:53:46;10.73;;;5.80;;
44985;SDS011;30721;49.380;7.736;2023-11-18T03:56:16;11.50;;;6.00;;
44985;SDS011;30721;49.380;7.736;2023-11-18T03:58:43;10.93;;;5.80;;
44985;SDS011;30721;49.380;7.736;2023-11-18T04:01:08;8.85;;;5.47;;
44985;SDS011;30721;49.380;7.736;2023-11-18T04:03:36;11.02;;;7.07;;
44985;SDS011;30721;49.380;7.736;2023-11-18T04:06:01;11.02;;;6.00;;
44985;SDS011;30721;49.380;7.736;2023-11-18T04:08:31;12.05;;;6.22;;
44985;SDS011;30721;49.380;7.736;2023-11-18T04:10:58;10.82;;;5.95;;
44985;SDS011;30721;49.380;7.736;2023-11-18T04:13:23;9.30;;;5.88;;
44985;SDS011;30721;49.380;7.736;2023-11-18T04:15:48;10.20;;;5.28;;
44985;SDS011;30721;49.380;7.736;2023-11-18T04:18:14;11.52;;;6.43;;
44985;SDS011;30721;49.380;7.736;2023-11-18T04:20:39;11.82;;;6.15;;
44985;SDS011;30721;49.380;7.736;2023-11-18T04:23:04;10.60;;;6.07;;
44985;SDS011;30721;49.380;7.736;2023-11-18T04:25:30;10.55;;;5.60;;
44985;SDS011;30721;49.380;7.736;2023-11-18T04:27:56;11.13;;;5.90;;
44985;SDS011;30721;49.380;7.736;2023-11-18T04:30:21;9.48;;;5.43;;
44985;SDS011;30721;49.380;7.736;2023-11-18T04:32:46;9.00;;;4.72;;
44985;SDS011;30721;49.380;7.736;2023-11-18T04:35:12;10.63;;;5.50;;
44985;SDS011;30721;49.380;7.736;2023-11-18T04:37:37;9.45;;;4.88;;
44985;SDS011;30721;49.380;7.736;2023-11-18T04:40:05;10.43;;;5.63;;
44985;SDS011;30721;49.380;7.736;2023-11-18T04:42:34;10.88;;;6.47;;
44985;SDS011;30721;49.380;7.736;2023-11-18T04:45:00;10.60;;;6.07;;
44985;SDS011;30721;49.380;7.736;2023-11-18T04:47:25;11.20;;;6.90;;
44985;SDS011;30721;49.380;7.736;2023-11-18T04:49:52;11.15;;;6.22;;
44985;SDS011;30721;49.380;7.736;2023-11-18T04:52:17;11.13;;;6.50;;
44985;SDS011;30721;49.380;7.736;2023-11-18T04:54:42;11.50;;;5.93;;
44985;SDS011;30721;49.380;7.736;2023-11-18T04:57:08;8.95;;;5.25;;
44985;SDS011;30721;49.380;7.736;2023-11-18T04:59:34;10.88;;;5.68;;
44985;SDS011;30721;49.380;7.736;2023-11-18T05:02:01;9.93;;;5.00;;
44985;SDS011;30721;49.380;7.736;2023-11-18T05:04:27;11.45;;;5.60;;
44985;SDS011;30721;49.380;7.736;2023-11-18T05:06:53;11.27;;;6.10;;
44985;SDS011;30721;49.380;7.736;2023-11-18T05:09:18;11.52;;;5.88;;
44985;SDS011;30721;49.380;7.736;2023-11-18T05:11:44;9.75;;;5.40;;
44985;SDS011;30721;49.380;7.736;2023-11-18T05:14:10;10.10;;;5.30;;
44985;SDS011;30721;49.380;7.736;2023-11-18T05:16:36;9.48;;;5.40;;
44985;SDS011;30721;49.380;7.736;2023-11-18T05:19:04;13.75;;;6.22;;
44985;SDS011;30721;49.380;7.736;2023-11-18T05:21:30;10.30;;;5.40;;
44985;SDS011;30721;49.380;7.736;2023-11-18T05:23:55;9.18;;;5.38;;
44985;SDS011;30721;49.380;7.736;2023-11-18T05:26:22;8.45;;;5.20;;
44985;SDS011;30721;49.380;7.736;2023-11-18T05:28:47;9.38;;;5.88;;
44985;SDS011;30721;49.380;7.736;2023-11-18T05:31:14;8.57;;;5.38;;
44985;SDS011;30721;49.380;7.736;2023-11-18T05:33:40;9.27;;;5.53;;
44985;SDS011;30721;49.380;7.736;2023-11-18T05:36:06;10.88;;;6.05;;
44985;SDS011;30721;49.380;7.736;2023-11-18T05:38:31;9.55;;;5.80;;
44985;SDS011;30721;49.380;7.736;2023-11-18T05:41:00;11.27;;;6.13;;
44985;SDS011;30721;49.380;7.736;2023-11-18T05:43:27;11.32;;;5.90;;
44985;SDS011;30721;49.380;7.736;2023-11-18T05:46:05;12.10;;;6.45;;
44985;SDS011;30721;49.380;7.736;2023-11-18T05:48:43;12.43;;;6.22;;
44985;SDS011;30721;49.380;7.736;2023-11-18T05:51:10;11.93;;;5.50;;
44985;SDS011;30721;49.380;7.736;2023-11-18T05:53:39;10.95;;;6.28;;
44985;SDS011;30721;49.380;7.736;2023-11-18T05:56:06;10.68;;;5.53;;
44985;SDS011;30721;49.380;7.736;2023-11-18T05:58:32;10.38;;;5.82;;
44985;SDS011;30721;49.380;7.736;2023-11-18T06:00:58;10.35;;;5.55;;
44985;SDS011;30721;49.380;7.736;2023-11-18T06:03:23;10.52;;;5.97;;
44985;SDS011;30721;49.380;7.736;2023-11-18T06:05:49;10.07;;;5.15;;
44985;SDS011;30721;49.380;7.736;2023-11-18T06:08:16;10.20;;;5.50;;
44985;SDS011;30721;49.380;7.736;2023-11-18T06:10:41;8.00;;;5.38;;
44985;SDS011;30721;49.380;7.736;2023-11-18T06:13:09;8.73;;;5.15;;
44985;SDS011;30721;49.380;7.736;2023-11-18T06:15:38;9.95;;;5.00;;
44985;SDS011;30721;49.380;7.736;2023-11-18T06:18:03;9.18;;;4.90;;
44985;SDS011;30721;49.380;7.736;2023-11-18T06:20:30;11.07;;;5.45;;
44985;SDS011;30721;49.380;7.736;2023-11-18T06:22:55;10.38;;;5.55;;
44985;SDS011;30721;49.380;7.736;2023-11-18T06:25:22;15.00;;;6.30;;
44985;SDS011;30721;49.380;7.736;2023-11-18T06:27:51;9.07;;;4.57;;
44985;SDS011;30721;49.380;7.736;2023-11-18T06:30:18;9.60;;;5.57;;
44985;SDS011;30721;49.380;7.736;2023-11-18T06:32:45;8.35;;;5.70;;
44985;SDS011;30721;49.380;7.736;2023-11-18T06:35:12;9.23;;;5.20;;
44985;SDS011;30721;49.380;7.736;2023-11-18T06:37:40;7.57;;;4.55;;
44985;SDS011;30721;49.380;7.736;2023-11-18T06:40:05;9.95;;;5.07;;
44985;SDS011;30721;49.380;7.736;2023-11-18T06:42:41;7.15;;;4.43;;
44985;SDS011;30721;49.380;7.736;2023-11-18T06:45:12;7.65;;;4.78;;
44985;SDS011;30721;49.380;7.736;2023-11-18T06:47:38;10.35;;;5.45;;
44985;SDS011;30721;49.380;7.736;2023-11-18T06:50:04;9.20;;;4.53;;
44985;SDS011;30721;49.380;7.736;2023-11-18T06:52:29;8.93;;;4.40;;
44985;SDS011;30721;49.380;7.736;2023-11-18T06:54:56;7.43;;;4.10;;
44985;SDS011;30721;49.380;7.736;2023-11-18T06:57:27;11.57;;;4.75;;
44985;SDS011;30721;49.380;7.736;2023-11-18T06:59:52;8.40;;;4.75;;
44985;SDS011;30721;49.380;7.736;2023-11-18T07:02:17;7.50;;;4.57;;
44985;SDS011;30721;49.380;7.736;2023-11-18T07:04:44;10.15;;;5.75;;
44985;SDS011;30721;49.380;7.736;2023-11-18T07:07:10;6.50;;;4.05;;
44985;SDS011;30721;49.380;7.736;2023-11-18T07:09:37;8.55;;;5.30;;
44985;SDS011;30721;49.380;7.736;2023-11-18T07:12:03;7.13;;;4.55;;
44985;SDS011;30721;49.380;7.736;2023-11-18T07:14:32;9.07;;;5.28;;
44985;SDS011;30721;49.380;7.736;2023-11-18T07:16:58;10.60;;;5.72;;
44985;SDS011;30721;49.380;7.736;2023-11-18T07:19:23;9.73;;;5.28;;
44985;SDS011;30721;49.380;7.736;2023-11-18T07:21:49;8.95;;;4.68;;
44985;SDS011;30721;49.380;7.736;2023-11-18T07:24:14;9.05;;;4.78;;
44985;SDS011;30721;49.380;7.736;2023-11-18T07:26:40;8.88;;;4.90;;
44985;SDS011;30721;49.380;7.736;2023-11-18T07:29:05;11.85;;;6.10;;
44985;SDS011;30721;49.380;7.736;2023-11-18T07:31:34;8.70;;;5.43;;
44985;SDS011;30721;49.380;7.736;2023-11-18T07:34:02;11.00;;;5.63;;
44985;SDS011;30721;49.380;7.736;2023-11-18T07:36:33;10.85;;;5.10;;
44985;SDS011;30721;49.380;7.736;2023-11-18T07:38:59;9.02;;;6.25;;
44985;SDS011;30721;49.380;7.736;2023-11-18T07:41:28;8.65;;;4.82;;
44985;SDS011;30721;49.380;7.736;2023-11-18T07:43:54;8.57;;;4.95;;
44985;SDS011;30721;49.380;7.736;2023-11-18T07:46:24;10.23;;;5.40;;
44985;SDS011;30721;49.380;7.736;2023-11-18T07:48:50;8.25;;;4.72;;
44985;SDS011;30721;49.380;7.736;2023-11-18T07:51:17;9.10;;;5.03;;
44985;SDS011;30721;49.380;7.736;2023-11-18T07:53:43;11.65;;;4.90;;
44985;SDS011;30721;49.380;7.736;2023-11-18T07:56:09;11.30;;;5.03;;
44985;SDS011;30721;49.380;7.736;2023-11-18T07:58:37;7.82;;;4.57;;
44985;SDS011;30721;49.380;7.736;2023-11-18T08:01:03;8.43;;;4.43;;
44985;SDS011;30721;49.380;7.736;2023-11-18T08:03:32;7.95;;;4.00;;
44985;SDS011;30721;49.380;7.736;2023-11-18T08:05:58;5.88;;;3.83;;
44985;SDS011;30721;49.380;7.736;2023-11-18T08:08:23;6.80;;;3.88;;
44985;SDS011;30721;49.380;7.736;2023-11-18T08:10:49;5.32;;;3.67;;
44985;SDS011;30721;49.380;7.736;2023-11-18T08:13:15;5.72;;;3.75;;
44985;SDS011;30721;49.380;7.736;2023-11-18T08:15:41;7.80;;;4.00;;
44985;SDS011;30721;49.380;7.736;2023-11-18T08:18:10;6.32;;;3.58;;
44985;SDS011;30721;49.380;7.736;2023-11-18T08:20:36;6.22;;;3.58;;
44985;SDS011;30721;49.380;7.736;2023-11-18T08:23:01;5.85;;;3.72;;
44985;SDS011;30721;49.380;7.736;2023-11-18T08:25:27;6.45;;;4.13;;
44985;SDS011;30721;49.380;7.736;2023-11-18T08:27:52;6.90;;;3.47;;
44985;SDS011;30721;49.380;7.736;2023-11-18T08:30:18;5.55;;;4.03;;
44985;SDS011;30721;49.380;7.736;2023-11-18T08:32:45;4.97;;;3.30;;
44985;SDS011;30721;49.380;7.736;2023-11-18T08:35:14;7.78;;;3.22;;
44985;SDS011;30721;49.380;7.736;2023-11-18T08:37:43;3.95;;;3.00;;
44985;SDS011;30721;49.380;7.736;2023-11-18T08:40:10;5.78;;;3.67;;
44985;SDS011;30721;49.380;7.736;2023-11-18T08:42:48;5.43;;;2.83;;
44985;SDS011;30721;49.380;7.736;2023-11-18T08:45:18;4.03;;;2.70;;
44985;SDS011;30721;49.380;7.736;2023-11-18T08:48:04;4.57;;;2.70;;
44985;SDS011;30721;49.380;7.736;2023-11-18T08:50:33;5.45;;;2.97;;
44985;SDS011;30721;49.380;7.736;2023-11-18T08:53:03;7.25;;;2.90;;
44985;SDS011;30721;49.380;7.736;2023-11-18T08:55:34;6.25;;;2.80;;
44985;SDS011;30721;49.380;7.736;2023-11-18T08:58:07;4.50;;;3.20;;
44985;SDS011;30721;49.380;7.736;2023-11-18T09:00:53;3.70;;;2.42;;
44985;SDS011;30721;49.380;7.736;2023-11-18T09:03:24;5.13;;;2.75;;
44985;SDS011;30721;49.380;7.736;2023-11-18T09:05:54;5.15;;;2.33;;
44985;SDS011;30721;49.380;7.736;2023-11-18T09:08:26;4.47;;;2.10;;
44985;SDS011;30721;49.380;7.736;2023-11-18T09:10:55;4.35;;;2.17;;
44985;SDS011;30721;49.380;7.736;2023-11-18T09:13:24;3.50;;;2.50;;
44985;SDS011;30721;49.380;7.736;2023-11-18T09:16:00;3.17;;;2.30;;
44985;SDS011;30721;49.380;7.736;2023-11-18T09:18:33;3.35;;;2.00;;
44985;SDS011;30721;49.380;7.736;2023-11-18T09:21:03;6.00;;;2.30;;
44985;SDS011;30721;49.380;7.736;2023-11-18T09:23:30;3.20;;;2.00;;
44985;SDS011;30721;49.380;7.736;2023-11-18T09:25:57;5.65;;;2.30;;
44985;SDS011;30721;49.380;7.736;2023-11-18T09:28:26;2.83;;;2.10;;
44985;SDS011;30721;49.380;7.736;2023-11-18T09:30:54;4.22;;;2.15;;
44985;SDS011;30721;49.380;7.736;2023-11-18T09:33:23;4.50;;;1.90;;
44985;SDS011;30721;49.380;7.736;2023-11-18T09:36:02;2.67;;;1.55;;
44985;SDS011;30721;49.380;7.736;2023-11-18T09:38:32;3.22;;;1.92;;
44985;SDS011;30721;49.380;7.736;2023-11-18T09:41:02;4.13;;;2.08;;
44985;SDS011;30721;49.380;7.736;2023-11-18T09:43:29;3.42;;;1.80;;
44985;SDS011;30721;49.380;7.736;2023-11-18T09:46:02;2.72;;;1.92;;
44985;SDS011;30721;49.380;7.736;2023-11-18T09:48:33;3.58;;;2.10;;
44985;SDS011;30721;49.380;7.736;2023-11-18T09:51:05;4.50;;;1.88;;
44985;SDS011;30721;49.380;7.736;2023-11-18T09:53:32;3.03;;;1.70;;
44985;SDS011;30721;49.380;7.736;2023-11-18T09:56:07;3.03;;;1.80;;
44985;SDS011;30721;49.380;7.736;2023-11-18T09:58:49;5.43;;;2.30;;
44985;SDS011;30721;49.380;7.736;2023-11-18T10:01:22;3.78;;;1.92;;
44985;SDS011;30721;49.380;7.736;2023-11-18T10:03:49;3.83;;;2.20;;
44985;SDS011;30721;49.380;7.736;2023-11-18T10:06:19;5.22;;;1.98;;
44985;SDS011;30721;49.380;7.736;2023-11-18T10:08:46;2.95;;;1.65;;
44985;SDS011;30721;49.380;7.736;2023-11-18T10:11:13;3.42;;;1.90;;
44985;SDS011;30721;49.380;7.736;2023-11-18T10:13:39;3.88;;;2.03;;
44985;SDS011;30721;49.380;7.736;2023-11-18T10:16:06;2.97;;;2.15;;
44985;SDS011;30721;49.380;7.736;2023-11-18T10:18:33;3.17;;;2.22;;
44985;SDS011;30721;49.380;7.736;2023-11-18T10:21:02;3.58;;;2.00;;
44985;SDS011;30721;49.380;7.736;2023-11-18T10:23:29;3.75;;;2.70;;
44985;SDS011;30721;49.380;7.736;2023-11-18T10:25:59;4.95;;;2.30;;
44985;SDS011;30721;49.380;7.736;2023-11-18T10:28:29;2.85;;;1.70;;
44985;SDS011;30721;49.380;7.736;2023-11-18T10:30:59;6.25;;;2.20;;
44985;SDS011;30721;49.380;7.736;2023-11-18T10:33:33;5.07;;;1.90;;
44985;SDS011;30721;49.380;7.736;2023-11-18T10:36:01;4.15;;;2.30;;
44985;SDS011;30721;49.380;7.736;2023-11-18T10:38:30;4.95;;;2.17;;
44985;SDS011;30721;49.380;7.736;2023-11-18T10:40:59;2.53;;;1.73;;
44985;SDS011;30721;49.380;7.736;2023-11-18T10:43:27;2.35;;;1.70;;
44985;SDS011;30721;49.380;7.736;2023-11-18T10:46:11;3.25;;;2.08;;
44985;SDS011;30721;49.380;7.736;2023-11-18T10:48:41;3.00;;;1.55;;
44985;SDS011;30721;49.380;7.736;2023-11-18T10:51:12;2.55;;;1.65;;
44985;SDS011;30721;49.380;7.736;2023-11-18T10:53:41;5.35;;;2.85;;
44985;SDS011;30721;49.380;7.736;2023-11-18T10:56:18;2.22;;;1.80;;
44985;SDS011;30721;49.380;7.736;2023-11-18T10:58:45;2.67;;;1.75;;
44985;SDS011;30721;49.380;7.736;2023-11-18T11:01:11;3.38;;;2.08;;
44985;SDS011;30721;49.380;7.736;2023-11-18T11:03:53;5.47;;;1.63;;
44985;SDS011;30721;49.380;7.736;2023-11-18T11:06:23;3.17;;;2.10;;
44985;SDS011;30721;49.380;7.736;2023-11-18T11:08:49;2.65;;;1.77;;
44985;SDS011;30721;49.380;7.736;2023-11-18T11:11:21;4.40;;;2.15;;
44985;SDS011;30721;49.380;7.736;2023-11-18T11:13:53;3.63;;;2.13;;
44985;SDS011;30721;49.380;7.736;2023-11-18T11:16:33;4.57;;;1.95;;
44985;SDS011;30721;49.380;7.736;2023-11-18T11:19:20;3.05;;;1.60;;
44985;SDS011;30721;49.380;7.736;2023-11-18T11:22:12;3.85;;;1.63;;
44985;SDS011;30721;49.380;7.736;2023-11-18T11:30:42;1.83;;;1.35;;
44985;SDS011;30721;49.380;7.736;2023-11-18T11:33:14;3.83;;;1.83;;
44985;SDS011;30721;49.380;7.736;2023-11-18T11:35:57;4.25;;;1.30;;
44985;SDS011;30721;49.380;7.736;2023-11-18T11:38:27;4.90;;;1.90;;
44985;SDS011;30721;49.380;7.736;2023-11-18T11:40:54;4.30;;;1.70;;
44985;SDS011;30721;49.380;7.736;2023-11-18T11:43:20;2.85;;;1.88;;
44985;SDS011;30721;49.380;7.736;2023-11-18T11:45:52;2.50;;;1.30;;
44985;SDS011;30721;49.380;7.736;2023-11-18T11:48:21;4.32;;;1.88;;
44985;SDS011;30721;49.380;7.736;2023-11-18T11:54:06;3.10;;;1.55;;
44985;SDS011;30721;49.380;7.736;2023-11-18T11:56:45;2.75;;;1.98;;
44985;SDS011;30721;49.380;7.736;2023-11-18T11:59:35;3.10;;;2.28;;
44985;SDS011;30721;49.380;7.736;2023-11-18T12:02:09;2.28;;;1.45;;
44985;SDS011;30721;49.380;7.736;2023-11-18T12:04:36;4.25;;;1.70;;
44985;SDS011;30721;49.380;7.736;2023-11-18T12:07:04;3.75;;;2.10;;
44985;SDS011;30721;49.380;7.736;2023-11-18T12:09:30;6.93;;;1.60;;
44985;SDS011;30721;49.380;7.736;2023-11-18T12:12:02;2.88;;;1.58;;
44985;SDS011;30721;49.380;7.736;2023-11-18T12:14:29;2.45;;;1.48;;
44985;SDS011;30721;49.380;7.736;2023-11-18T12:22:04;2.65;;;1.85;;
44985;SDS011;30721;49.380;7.736;2023-11-18T12:24:38;3.15;;;1.85;;
44985;SDS011;30721;49.380;7.736;2023-11-18T12:27:04;2.90;;;1.70;;
44985;SDS011;30721;49.380;7.736;2023-11-18T12:29:40;2.10;;;1.48;;
44985;SDS011;30721;49.380;7.736;2023-11-18T12:32:08;2.53;;;1.63;;
44985;SDS011;30721;49.380;7.736;2023-11-18T12:34:50;3.40;;;1.58;;
44985;SDS011;30721;49.380;7.736;2023-11-18T12:37:21;4.20;;;2.78;;
44985;SDS011;30721;49.380;7.736;2023-11-18T12:40:19;3.85;;;2.10;;
44985;SDS011;30721;49.380;7.736;2023-11-18T12:42:59;3.60;;;1.23;;
44985;SDS011;30721;49.380;7.736;2023-11-18T12:45:38;2.78;;;1.63;;
44985;SDS011;30721;49.380;7.736;2023-11-18T12:48:09;1.42;;;1.33;;
44985;SDS011;30721;49.380;7.736;2023-11-18T12:50:42;2.72;;;1.30;;
44985;SDS011;30721;49.380;7.736;2023-11-18T12:53:11;4.25;;;1.58;;
44985;SDS011;30721;49.380;7.736;2023-11-18T12:55:39;4.03;;;1.40;;
44985;SDS011;30721;49.380;7.736;2023-11-18T12:58:06;2.25;;;1.40;;
44985;SDS011;30721;49.380;7.736;2023-11-18T13:00:32;3.88;;;1.90;;
44985;SDS011;30721;49.380;7.736;2023-11-18T13:02:59;3.90;;;1.40;;
44985;SDS011;30721;49.380;7.736;2023-11-18T13:05:25;4.35;;;1.33;;
44985;SDS011;30721;49.380;7.736;2023-11-18T13:07:55;2.17;;;1.42;;
44985;SDS011;30721;49.380;7.736;2023-11-18T13:10:24;4.18;;;1.35;;
44985;SDS011;30721;49.380;7.736;2023-11-18T13:12:52;2.42;;;1.50;;
44985;SDS011;30721;49.380;7.736;2023-11-18T13:15:18;3.15;;;1.40;;
44985;SDS011;30721;49.380;7.736;2023-11-18T13:17:56;4.72;;;1.48;;
44985;SDS011;30721;49.380;7.736;2023-11-18T13:20:26;4.32;;;1.33;;
44985;SDS011;30721;49.380;7.736;2023-11-18T13:22:51;3.30;;;1.63;;
44985;SDS011;30721;49.380;7.736;2023-11-18T13:25:23;2.75;;;1.50;;
44985;SDS011;30721;49.380;7.736;2023-11-18T13:27:49;4.35;;;1.83;;
44985;SDS011;30721;49.380;7.736;2023-11-18T13:30:15;2.08;;;1.40;;
44985;SDS011;30721;49.380;7.736;2023-11-18T13:32:42;5.35;;;1.80;;
44985;SDS011;30721;49.380;7.736;2023-11-18T13:35:08;2.40;;;1.13;;
44985;SDS011;30721;49.380;7.736;2023-11-18T13:37:34;2.13;;;1.10;;
44985;SDS011;30721;49.380;7.736;2023-11-18T13:40:00;3.17;;;1.30;;
44985;SDS011;30721;49.380;7.736;2023-11-18T13:42:26;3.83;;;1.67;;
44985;SDS011;30721;49.380;7.736;2023-11-18T13:45:04;2.10;;;1.38;;
44985;SDS011;30721;49.380;7.736;2023-11-18T13:47:37;5.10;;;1.75;;
44985;SDS011;30721;49.380;7.736;2023-11-18T13:50:08;3.92;;;1.20;;
44985;SDS011;30721;49.380;7.736;2023-11-18T13:52:35;1.92;;;1.52;;
44985;SDS011;30721;49.380;7.736;2023-11-18T13:55:04;2.70;;;1.30;;
44985;SDS011;30721;49.380;7.736;2023-11-18T13:57:31;3.45;;;1.45;;
44985;SDS011;30721;49.380;7.736;2023-11-18T13:59:57;2.80;;;1.23;;
44985;SDS011;30721;49.380;7.736;2023-11-18T14:02:22;2.85;;;1.42;;
44985;SDS011;30721;49.380;7.736;2023-11-18T14:04:49;2.80;;;1.20;;
44985;SDS011;30721;49.380;7.736;2023-11-18T14:07:15;1.48;;;1.00;;
44985;SDS011;30721;49.380;7.736;2023-11-18T14:09:42;1.73;;;1.17;;
44985;SDS011;30721;49.380;7.736;2023-11-18T14:12:14;1.80;;;1.40;;
44985;SDS011;30721;49.380;7.736;2023-11-18T14:14:39;3.42;;;1.40;;
44985;SDS011;30721;49.380;7.736;2023-11-18T14:17:05;2.60;;;1.23;;
44985;SDS011;30721;49.380;7.736;2023-11-18T14:19:35;3.35;;;1.50;;
44985;SDS011;30721;49.380;7.736;2023-11-18T14:22:01;2.40;;;1.17;;
44985;SDS011;30721;49.380;7.736;2023-11-18T14:24:29;1.58;;;1.15;;
44985;SDS011;30721;49.380;7.736;2023-11-18T14:26:57;2.58;;;1.77;;
44985;SDS011;30721;49.380;7.736;2023-11-18T14:29:22;2.50;;;1.33;;
44985;SDS011;30721;49.380;7.736;2023-11-18T14:31:48;3.05;;;1.38;;
44985;SDS011;30721;49.380;7.736;2023-11-18T14:34:13;3.45;;;1.13;;
44985;SDS011;30721;49.380;7.736;2023-11-18T14:36:39;2.70;;;1.73;;
44985;SDS011;30721;49.380;7.736;2023-11-18T14:39:05;4.68;;;1.38;;
44985;SDS011;30721;49.380;7.736;2023-11-18T14:41:35;2.00;;;1.80;;
44985;SDS011;30721;49.380;7.736;2023-11-18T14:44:01;2.25;;;1.60;;
44985;SDS011;30721;49.380;7.736;2023-11-18T14:46:29;3.78;;;1.58;;
44985;SDS011;30721;49.380;7.736;2023-11-18T14:48:56;3.17;;;1.70;;
44985;SDS011;30721;49.380;7.736;2023-11-18T14:51:22;3.38;;;1.65;;
44985;SDS011;30721;49.380;7.736;2023-11-18T14:53:47;4.30;;;2.38;;
44985;SDS011;30721;49.380;7.736;2023-11-18T14:56:13;2.92;;;1.58;;
44985;SDS011;30721;49.380;7.736;2023-11-18T14:58:40;5.57;;;2.80;;
44985;SDS011;30721;49.380;7.736;2023-11-18T15:01:05;8.98;;;4.40;;
44985;SDS011;30721;49.380;7.736;2023-11-18T15:03:36;3.53;;;2.63;;
44985;SDS011;30721;49.380;7.736;2023-11-18T15:06:02;3.15;;;2.00;;